»·PEaware :: N32314 KCMA-KSNA

N32314 :: KCMA-KSNA

FLIGHT INFORMATION

Flight Status: Arrived
Operator: Privately registered:
United States
More flights under this callsign
Pilot: John O. (31453)
Aircraft: CESSNA 172 SKYHAWK
(C172)
More flights by this aircraft type
Origin: KCMA Camarillo
United States
Destination: KSNA John Wayne-Orange Co
United States
More flights between these airports :: More routes between these airports
Route: COASTAL ROUTE
File this flight plan on PilotEdge
Remarks:
Altitude:
(Current/Filed)
5,500ft
Speed:
(Current/Filed)
110kts
Departed: 27-Sep-20 03:51 PM
Arrived: 27-Sep-20 04:38 PM
Distance/Time
Traveled:
69nm/0:46
Distance/Time
To Go:
Arrived

Flight Plot

Page will automatically refresh every two minutes.


Map Options




Map Legend


Flown Route
Filed Route
Departure Airport
Arrival Airport
Navaid (VOR, NDB)
Fix

Horizontal Profiles

Position Reports

Time Latitude Longitude Heading Altitude Ground
Speed
27-Sep-20 15:42 34.210681 -119.092100 180 72ft 0kts
27-Sep-20 15:44 34.210681 -119.092100 180 72ft 0kts
27-Sep-20 15:45 34.210681 -119.092100 180 72ft 0kts
27-Sep-20 15:45 34.210972 -119.090570 87 76ft 18kts
27-Sep-20 15:46 34.210937 -119.085554 90 80ft 10kts
27-Sep-20 15:48 34.212900 -119.084602 0 78ft 0kts
27-Sep-20 15:48 34.212900 -119.084602 0 78ft 0kts
27-Sep-20 15:49 34.212926 -119.084603 355 78ft 3kts
27-Sep-20 15:50 34.213802 -119.097316 268 305ft 72kts
27-Sep-20 15:51 34.201939 -119.109249 130 1016ft 85kts
27-Sep-20 15:52 34.198592 -119.073971 94 1383ft 112kts
27-Sep-20 15:53 34.196951 -119.044700 93 2261ft 82kts
27-Sep-20 15:54 34.195773 -119.016401 83 2952ft 58kts
27-Sep-20 15:55 34.198992 -118.988951 84 3339ft 95kts
27-Sep-20 15:56 34.201857 -118.953746 84 3810ft 108kts
27-Sep-20 15:57 34.204782 -118.918163 84 4394ft 104kts
27-Sep-20 15:58 34.207677 -118.883548 84 4995ft 101kts
27-Sep-20 15:59 34.210561 -118.849829 84 5541ft 104kts
27-Sep-20 16:00 34.212200 -118.810325 84 5590ft 126kts
27-Sep-20 16:01 34.215591 -118.771339 84 5593ft 106kts
27-Sep-20 16:02 34.218634 -118.736425 84 5590ft 103kts
27-Sep-20 16:03 34.221690 -118.701352 84 5592ft 106kts
27-Sep-20 16:04 34.224715 -118.666632 84 5592ft 112kts
27-Sep-20 16:05 34.228062 -118.628375 83 5592ft 115kts
27-Sep-20 16:06 34.225694 -118.590551 116 5591ft 115kts
27-Sep-20 16:07 34.197690 -118.574117 157 5591ft 110kts
27-Sep-20 16:08 34.170997 -118.557756 162 5623ft 104kts
27-Sep-20 16:09 34.150131 -118.537055 172 5596ft 108kts
27-Sep-20 16:10 34.123056 -118.524497 159 5584ft 107kts
27-Sep-20 16:11 34.094305 -118.510500 158 5579ft 113kts
27-Sep-20 16:12 34.065295 -118.496354 158 5583ft 111kts
27-Sep-20 16:13 34.036387 -118.482261 159 5583ft 112kts
27-Sep-20 16:14 34.007538 -118.472113 172 5501ft 100kts
27-Sep-20 16:15 33.983584 -118.456428 157 5580ft 109kts
27-Sep-20 16:16 33.954964 -118.442587 159 5582ft 111kts
27-Sep-20 16:17 33.930188 -118.427682 77 5583ft 111kts
27-Sep-20 16:18 33.936861 -118.411693 177 5070ft 133kts
27-Sep-20 16:19 33.909814 -118.408266 136 5371ft 94kts
27-Sep-20 16:20 33.891187 -118.383887 135 5577ft 107kts
27-Sep-20 16:21 33.871302 -118.355951 136 5587ft 117kts
27-Sep-20 16:22 33.848046 -118.329072 136 5584ft 115kts
27-Sep-20 16:23 33.824830 -118.302232 136 5583ft 115kts
27-Sep-20 16:24 33.809793 -118.268284 106 5583ft 116kts
27-Sep-20 16:25 33.800837 -118.230962 106 5583ft 116kts
27-Sep-20 16:26 33.792165 -118.195070 106 5582ft 116kts
27-Sep-20 16:27 33.783227 -118.158199 106 5583ft 116kts
27-Sep-20 16:28 33.774152 -118.120871 106 5585ft 116kts
27-Sep-20 16:29 33.765097 -118.083648 106 5583ft 116kts
27-Sep-20 16:30 33.756018 -118.046273 106 5583ft 116kts
27-Sep-20 16:31 33.747604 -118.012021 106 5065ft 114kts
27-Sep-20 16:32 33.738070 -117.972970 106 3509ft 126kts
27-Sep-20 16:33 33.726393 -117.934087 105 1817ft 116kts
27-Sep-20 16:34 33.718153 -117.898191 105 1512ft 110kts
27-Sep-20 16:35 33.710774 -117.866330 108 1161ft 87kts
27-Sep-20 16:36 33.693123 -117.858057 204 462ft 79kts
27-Sep-20 16:37 33.677213 -117.867919 205 54ft 37kts
27-Sep-20 16:38 33.675958 -117.869818 295 55ft 0kts
27-Sep-20 16:39 33.674727 -117.871950 131 52ft 0kts

Navigation Log

Ident Type
Flight plan parsing failed, navigation log unavailable